Sentinel, OK (73664)

3:37 AM CST on December 22, 2014 (GMT -0600)
Petzold Consulting | Change Station
CLOSE
Current Station
Personal Weather Station
Location: Lone Wolf, OK
Elevation: 1588 ft
Nearby Weather Stations

Elev 1588 ft 34.99 °N, 99.25 °W | Updated 57 seconds ago

Mostly Cloudy
Mostly Cloudy
40.3 °F
Feels Like 40 °F
N
0.0
Wind Variable Wind from East
Gusts 0.0 mph

Today
High -- | Low -- °F
--% Chance of Precip.
Yesterday
High -- | Low -- °F
Precip. -- in
7:41 AM 5:29 PM
New Moon, 0% visible
Pressure 29.54 in
Visibility 0.2 miles
Clouds
Windchill 40 °F
Dew Point 38 °F
Humidity 93%
Rainfall 0.00 in
Snow Depth Not available.
UV Not available.
Pollen 8.10 out of 12
Air Quality Not available.
Flu Activity Not available.
METAR KCSM 220853Z AUTO 00000KT 1/4SM FG VV003 03/02 A2954 RMK AO2 SLP003 T00280022 55010

More Conditions Fewer Conditions

Pressure 29.54 in
Visibility 0.2 miles
Clouds
Windchill 40 °F
Dew Point 38 °F
Humidity 93%
Rainfall 0.00 in
Snow Depth Not available.
UV Not available.
Pollen 8.10 out of 12
Air Quality Not available.
Flu Activity Not available.
METAR KCSM 220853Z AUTO 00000KT 1/4SM FG VV003 03/02 A2954 RMK AO2 SLP003 T00280022 55010

More Conditions Fewer Conditions

10-Day Weather Forecast

Almanac

Astronomy

Dec. 22, 2014 Rise Set
Actual Time
Civil Twilight
Nautical Twilight
Astronomical Twilight
Moon
Length of Visible Light
Length of Day
Tomorrow will be .
, % of the Moon is Illuminated

Today's Extremes

State Highs State Lows

Community

WunderPhotos

Upload Photos

1,779,583 photos uploaded!

WunderBlogs® & News

Nearby

Air Quality

  Air Quality AQ Index Pollutant
Not available.

Snow Depth

Station Depth Elevation

Earthquake Activity

City Distance Mag. Time & Date
Minimum magnitude displayed is 2.5.

Coastal Water Temperatures

Place Temperature

Nearby Weather Stations